createdAt,value
2022-09-15T00:00:26.757Z,70.20
2022-09-15T00:02:53.267Z,69.48
2022-09-15T00:05:19.985Z,70.08
2022-09-15T00:07:46.700Z,69.68
2022-09-15T00:10:13.250Z,68.88
2022-09-15T00:12:40.210Z,71.31
2022-09-15T00:15:07.760Z,69.33
2022-09-15T00:17:34.679Z,70.47
2022-09-15T00:20:01.504Z,69.89
2022-09-15T00:22:28.410Z,70.71
2022-09-15T00:24:54.885Z,71.02
2022-09-15T00:27:21.389Z,69.67
2022-09-15T00:29:47.931Z,69.42
2022-09-15T00:32:14.409Z,68.42
2022-09-15T00:34:40.891Z,68.45
2022-09-15T00:37:07.360Z,68.15
2022-09-15T00:39:34.138Z,69.21
2022-09-15T00:42:00.674Z,67.92
2022-09-15T00:44:36.322Z,68.54
2022-09-15T00:47:18.779Z,67.73
2022-09-15T00:49:47.689Z,67.44
2022-09-15T00:52:21.079Z,68.25
2022-09-15T00:55:00.862Z,68.85
2022-09-15T00:57:39.075Z,68.18
2022-09-15T01:00:09.889Z,67.82
2022-09-15T01:02:37.907Z,67.66
2022-09-15T01:05:08.722Z,67.94
2022-09-15T01:07:39.938Z,67.64
2022-09-15T01:10:25.974Z,67.42
2022-09-15T01:12:55.515Z,67.00
2022-09-15T01:15:25.102Z,67.54
2022-09-15T01:18:13.232Z,67.67
2022-09-15T01:20:49.946Z,68.53
2022-09-15T01:23:34.859Z,68.46
2022-09-15T01:26:04.496Z,68.62
2022-09-15T01:28:55.923Z,69.03
2022-09-15T01:31:29.985Z,70.07
2022-09-15T01:34:06.547Z,70.91
2022-09-15T01:36:47.482Z,69.21
2022-09-15T01:39:17.994Z,72.97
2022-09-15T01:41:47.610Z,69.92
2022-09-15T01:44:24.694Z,69.47
2022-09-15T01:47:03.227Z,69.60
2022-09-15T01:49:35.563Z,68.74
2022-09-15T01:52:02.412Z,68.82
2022-09-15T01:54:31.014Z,70.18
2022-09-15T01:56:57.663Z,69.71
2022-09-15T01:59:24.639Z,69.80
2022-09-15T02:01:58.990Z,69.35
2022-09-15T02:04:31.776Z,69.43
2022-09-15T02:07:15.381Z,71.37
2022-09-15T02:10:14.838Z,71.73
2022-09-15T02:12:50.728Z,70.39
2022-09-15T02:15:25.420Z,70.29
2022-09-15T02:17:54.239Z,70.87
2022-09-15T02:20:42.756Z,68.86
2022-09-15T02:23:27.609Z,68.23
2022-09-15T02:25:59.462Z,68.11
2022-09-15T02:28:29.293Z,67.91
2022-09-15T02:30:58.118Z,67.68
2022-09-15T02:33:30.107Z,67.03
2022-09-15T02:35:56.626Z,67.06
2022-09-15T02:38:23.636Z,66.72
2022-09-15T02:40:50.737Z,67.40
2022-09-15T02:43:17.643Z,69.19
2022-09-15T02:45:44.159Z,68.26
2022-09-15T02:48:10.771Z,67.70
2022-09-15T02:50:38.343Z,66.00
2022-09-15T02:53:05.355Z,65.81
2022-09-15T02:55:32.066Z,65.36
2022-09-15T02:57:59.206Z,65.15
2022-09-15T03:00:27.762Z,65.08
2022-09-15T03:02:54.541Z,64.97
2022-09-15T03:05:26.855Z,65.81
2022-09-15T03:07:53.518Z,65.34
2022-09-15T03:10:21.290Z,65.13
2022-09-15T03:12:50.258Z,67.06
2022-09-15T03:15:19.233Z,66.75
2022-09-15T03:17:46.997Z,66.98
2022-09-15T03:20:16.830Z,67.11
2022-09-15T03:22:43.362Z,68.99
2022-09-15T03:25:10.574Z,68.43
2022-09-15T03:27:37.315Z,67.62
2022-09-15T03:30:05.203Z,68.13
2022-09-15T03:32:31.679Z,67.53
2022-09-15T03:34:58.760Z,68.02
2022-09-15T03:37:25.771Z,67.17
2022-09-15T03:39:52.446Z,68.04
2022-09-15T03:42:20.448Z,68.65
2022-09-15T03:44:47.194Z,69.28
2022-09-15T03:47:13.701Z,68.15
2022-09-15T03:49:40.215Z,69.11
2022-09-15T03:52:06.741Z,70.57
2022-09-15T03:54:33.176Z,70.34
2022-09-15T03:56:59.690Z,70.20
2022-09-15T03:59:26.206Z,71.44
2022-09-15T04:01:52.896Z,71.71
2022-09-15T04:04:19.504Z,71.64
2022-09-15T04:06:46.511Z,70.38
2022-09-15T04:09:13.561Z,70.38
2022-09-15T04:11:40.892Z,69.86
2022-09-15T04:14:07.473Z,68.62
2022-09-15T04:16:34.468Z,69.07
2022-09-15T04:19:01.737Z,68.50
2022-09-15T04:21:28.215Z,68.50
2022-09-15T04:23:54.867Z,67.98
2022-09-15T04:26:29.000Z,67.87
2022-09-15T04:28:55.536Z,67.89
2022-09-15T04:31:22.151Z,67.23
2022-09-15T04:33:51.714Z,69.13
2022-09-15T04:36:21.113Z,67.26
2022-09-15T04:38:47.999Z,67.37
2022-09-15T04:41:15.093Z,69.40
2022-09-15T04:43:43.359Z,68.96
2022-09-15T04:46:10.779Z,67.78
2022-09-15T04:48:37.809Z,69.19
2022-09-15T04:51:06.164Z,69.34
2022-09-15T04:53:32.770Z,70.29
2022-09-15T04:56:10.100Z,69.32
2022-09-15T04:58:44.527Z,67.78
2022-09-15T05:01:16.965Z,67.56
2022-09-15T05:03:44.207Z,68.93
2022-09-15T05:06:13.073Z,72.49
2022-09-15T05:08:40.138Z,72.10
2022-09-15T05:11:09.541Z,70.41
2022-09-15T05:13:36.535Z,70.92
2022-09-15T05:16:05.249Z,69.77
2022-09-15T05:18:33.029Z,70.14
2022-09-15T05:21:03.424Z,70.54
2022-09-15T05:23:31.187Z,69.71
2022-09-15T05:25:58.346Z,70.64
2022-09-15T05:28:25.165Z,70.28
2022-09-15T05:30:52.916Z,70.69
2022-09-15T05:33:20.991Z,71.46
2022-09-15T05:35:55.413Z,70.88
2022-09-15T05:38:22.710Z,72.22
2022-09-15T05:40:49.269Z,72.36
2022-09-15T05:43:16.928Z,71.73
2022-09-15T05:45:43.699Z,72.65
2022-09-15T05:48:11.946Z,71.42
2022-09-15T05:50:39.370Z,71.69
2022-09-15T05:53:07.495Z,70.69
2022-09-15T05:55:38.062Z,70.49
2022-09-15T05:58:04.886Z,70.11
2022-09-15T06:00:31.391Z,69.69
2022-09-15T06:02:58.241Z,69.87
2022-09-15T06:05:24.848Z,70.41
2022-09-15T06:07:55.067Z,69.70
2022-09-15T06:10:24.670Z,69.62
2022-09-15T06:12:55.010Z,69.18
2022-09-15T06:15:22.779Z,68.53
2022-09-15T06:17:49.422Z,67.52
2022-09-15T06:20:16.036Z,67.86
2022-09-15T06:22:42.483Z,67.58
2022-09-15T06:25:09.298Z,69.47
2022-09-15T06:27:35.858Z,68.11
2022-09-15T06:30:02.527Z,68.25
2022-09-15T06:32:28.986Z,67.77
2022-09-15T06:34:55.475Z,69.04
2022-09-15T06:37:21.963Z,71.92
2022-09-15T06:39:48.426Z,69.27
2022-09-15T06:42:15.318Z,69.26
2022-09-15T06:44:41.749Z,72.21
2022-09-15T06:47:08.222Z,70.65
2022-09-15T06:49:34.690Z,72.10
2022-09-15T06:52:02.484Z,69.76
2022-09-15T06:54:28.984Z,68.21
2022-09-15T06:56:55.535Z,69.48
2022-09-15T06:59:23.921Z,70.00
2022-09-15T07:01:54.583Z,68.62
2022-09-15T07:04:21.779Z,69.91
2022-09-15T07:06:48.562Z,68.96
2022-09-15T07:09:15.127Z,68.69
2022-09-15T07:11:41.635Z,69.54
2022-09-15T07:14:08.362Z,70.04
2022-09-15T07:16:35.280Z,68.34
2022-09-15T07:19:05.178Z,68.29
2022-09-15T07:21:31.770Z,67.47
2022-09-15T07:23:58.403Z,66.99
2022-09-15T07:26:27.603Z,66.95
2022-09-15T07:28:56.578Z,65.17
2022-09-15T07:31:25.388Z,64.45
2022-09-15T07:33:52.237Z,64.03
2022-09-15T07:36:19.649Z,65.50
2022-09-15T07:38:48.081Z,64.44
2022-09-15T07:41:16.647Z,66.09
2022-09-15T07:43:50.804Z,65.44
2022-09-15T07:46:18.423Z,64.37
2022-09-15T07:48:50.004Z,65.65
2022-09-15T07:51:16.974Z,65.42
2022-09-15T07:53:44.908Z,66.52
2022-09-15T07:56:11.761Z,64.35
2022-09-15T07:58:38.244Z,66.49
2022-09-15T08:01:06.785Z,64.46
2022-09-15T08:03:33.758Z,62.56
2022-09-15T08:06:03.946Z,62.30
2022-09-15T08:08:30.433Z,63.20
2022-09-15T08:10:58.107Z,61.93
2022-09-15T08:13:25.019Z,62.31
2022-09-15T08:15:52.188Z,62.88
2022-09-15T08:18:18.798Z,63.07
2022-09-15T08:20:45.297Z,64.48
2022-09-15T08:23:11.808Z,63.56
2022-09-15T08:25:39.548Z,63.50
2022-09-15T08:28:06.280Z,63.96
2022-09-15T08:30:32.977Z,65.17
2022-09-15T08:32:59.564Z,65.59
2022-09-15T08:35:26.088Z,65.48
2022-09-15T08:37:54.369Z,65.20
2022-09-15T08:40:23.776Z,66.56
2022-09-15T08:42:52.368Z,65.28
2022-09-15T08:45:30.557Z,65.31
2022-09-15T08:48:01.004Z,65.03
2022-09-15T08:50:38.794Z,64.98
2022-09-15T08:53:21.955Z,63.06
2022-09-15T08:55:56.807Z,62.05
2022-09-15T08:58:29.664Z,64.82
2022-09-15T09:01:01.270Z,64.36
2022-09-15T09:03:48.234Z,63.68
2022-09-15T09:06:56.421Z,61.31
2022-09-15T09:09:37.819Z,60.70
2022-09-15T09:12:24.841Z,58.28
2022-09-15T09:14:54.354Z,59.80
2022-09-15T09:17:23.934Z,58.03
2022-09-15T09:20:25.488Z,58.67
2022-09-15T09:22:53.828Z,57.35
2022-09-15T09:25:27.521Z,55.37
2022-09-15T09:27:55.411Z,54.02
2022-09-15T09:30:23.480Z,56.31
2022-09-15T09:32:55.754Z,54.81
2022-09-15T09:35:36.276Z,53.02
2022-09-15T09:38:02.846Z,50.07
2022-09-15T09:40:31.758Z,50.59
2022-09-15T09:42:59.950Z,49.58
2022-09-15T09:45:26.483Z,47.34
2022-09-15T09:47:59.489Z,46.77
2022-09-15T09:50:44.511Z,45.92
2022-09-15T09:53:31.907Z,44.85
2022-09-15T09:56:28.774Z,42.74
2022-09-15T09:58:55.439Z,44.11
2022-09-15T10:01:25.318Z,43.83
2022-09-15T10:04:19.047Z,42.47
2022-09-15T10:06:45.807Z,42.34
2022-09-15T10:09:17.527Z,40.60
2022-09-15T10:11:54.977Z,38.90
2022-09-15T10:14:31.435Z,41.39
2022-09-15T10:17:18.066Z,41.03
2022-09-15T10:19:47.987Z,42.30
2022-09-15T10:22:43.862Z,40.89
2022-09-15T10:25:19.477Z,38.33
2022-09-15T10:28:03.748Z,38.34
2022-09-15T10:30:30.291Z,38.41
2022-09-15T10:33:17.715Z,39.75
2022-09-15T10:35:44.662Z,41.44
2022-09-15T10:38:19.915Z,43.08
2022-09-15T10:40:53.028Z,44.74
2022-09-15T10:43:38.481Z,45.53
2022-09-15T10:46:13.201Z,44.22
2022-09-15T10:48:48.964Z,47.30
2022-09-15T10:51:26.867Z,47.44
2022-09-15T10:54:18.139Z,48.52
2022-09-15T10:56:49.131Z,49.91
2022-09-15T10:59:33.958Z,51.21
2022-09-15T11:02:28.011Z,51.11
2022-09-15T11:05:22.549Z,50.96
2022-09-15T11:07:49.692Z,52.32
2022-09-15T11:10:19.212Z,52.46
2022-09-15T11:13:08.165Z,51.79
2022-09-15T11:15:49.602Z,52.95
2022-09-15T11:18:22.351Z,52.13
2022-09-15T11:21:11.289Z,50.46
2022-09-15T11:23:42.591Z,50.55
2022-09-15T11:26:17.543Z,50.43
2022-09-15T11:28:50.514Z,49.74
2022-09-15T11:31:27.524Z,51.66
2022-09-15T11:34:02.477Z,50.85
2022-09-15T11:36:34.802Z,50.51
2022-09-15T11:39:08.404Z,49.89
2022-09-15T11:41:56.247Z,47.38
2022-09-15T11:44:24.610Z,47.08
2022-09-15T11:47:16.319Z,46.47
2022-09-15T11:50:02.182Z,35.27
2022-09-15T11:53:06.385Z,35.85
2022-09-15T11:56:12.059Z,32.95
2022-09-15T11:59:03.885Z,35.80
2022-09-15T12:01:39.937Z,38.29
2022-09-15T12:04:23.108Z,37.28
2022-09-15T12:06:57.347Z,39.30
2022-09-15T12:09:23.947Z,35.57
2022-09-15T12:11:54.219Z,36.26
2022-09-15T12:14:47.090Z,35.58
2022-09-15T12:17:18.834Z,36.05
2022-09-15T12:20:08.217Z,40.04
2022-09-15T12:22:41.719Z,42.54
2022-09-15T12:25:39.067Z,43.14
2022-09-15T12:28:24.050Z,42.41
2022-09-15T12:31:13.244Z,40.71
2022-09-15T12:33:42.750Z,42.05
2022-09-15T12:36:31.171Z,41.10
2022-09-15T12:38:58.738Z,42.83
2022-09-15T12:41:25.555Z,42.18
2022-09-15T12:44:12.498Z,43.86
2022-09-15T12:46:39.421Z,44.37
2022-09-15T12:49:06.170Z,45.24
2022-09-15T12:51:33.535Z,44.18
2022-09-15T12:54:04.615Z,45.40
2022-09-15T12:56:33.023Z,44.97
2022-09-15T12:59:06.606Z,45.95
2022-09-15T13:01:48.515Z,44.86
2022-09-15T13:04:43.731Z,47.25
2022-09-15T13:07:16.335Z,47.27
2022-09-15T13:09:57.049Z,46.62
2022-09-15T13:12:27.045Z,43.91
2022-09-15T13:14:54.560Z,43.86
2022-09-15T13:17:24.239Z,43.57
2022-09-15T13:19:53.331Z,43.14
2022-09-15T13:22:27.361Z,43.94
2022-09-15T13:24:57.690Z,43.90
2022-09-15T13:27:33.433Z,43.51
2022-09-15T13:30:16.094Z,43.25
2022-09-15T13:32:52.892Z,42.20
2022-09-15T13:35:37.523Z,43.38
2022-09-15T13:38:12.658Z,42.99
2022-09-15T13:41:18.500Z,43.03
2022-09-15T13:43:45.358Z,43.49
2022-09-15T13:46:33.711Z,43.50
2022-09-15T13:49:15.555Z,44.45
2022-09-15T13:51:43.816Z,44.71
2022-09-15T13:54:19.088Z,45.43
2022-09-15T13:56:47.353Z,47.51
2022-09-15T13:59:17.908Z,48.23
2022-09-15T14:01:45.269Z,48.17
2022-09-15T14:04:17.299Z,47.46
2022-09-15T14:06:46.083Z,48.03
2022-09-15T14:09:21.433Z,47.95
2022-09-15T14:11:49.077Z,48.85
2022-09-15T14:14:27.786Z,49.57
2022-09-15T14:16:56.432Z,49.06
2022-09-15T14:19:38.201Z,48.90
2022-09-15T14:22:30.889Z,47.76
2022-09-15T14:24:59.422Z,47.80
2022-09-15T14:27:32.361Z,50.08
2022-09-15T14:30:03.217Z,50.36
2022-09-15T14:32:38.487Z,49.62
2022-09-15T14:35:07.297Z,49.41
2022-09-15T14:37:34.847Z,48.48
2022-09-15T14:40:12.547Z,47.73
2022-09-15T14:42:42.245Z,47.72
2022-09-15T14:48:06.641Z,46.16
2022-09-15T14:50:33.755Z,46.04
2022-09-15T14:53:03.938Z,47.17
2022-09-15T14:55:32.055Z,47.89
2022-09-15T14:58:01.921Z,47.93
2022-09-15T15:00:32.241Z,48.59
2022-09-15T15:03:14.860Z,48.81
2022-09-15T15:06:02.659Z,47.85
2022-09-15T15:08:41.362Z,49.20
2022-09-15T15:11:08.481Z,49.28
2022-09-15T15:13:36.766Z,49.77
2022-09-15T15:16:07.927Z,48.79
2022-09-15T15:18:40.324Z,49.55
2022-09-15T15:21:38.595Z,49.90
2022-09-15T15:24:12.531Z,50.33
2022-09-15T15:26:42.598Z,49.57
2022-09-15T15:29:39.694Z,48.84
2022-09-15T15:32:11.640Z,48.23
2022-09-15T15:34:38.617Z,47.95
2022-09-15T15:37:16.561Z,48.94
2022-09-15T15:39:45.836Z,48.30
2022-09-15T15:42:15.523Z,47.92
2022-09-15T15:45:04.243Z,48.59
2022-09-15T15:47:32.517Z,48.44
2022-09-15T15:50:13.662Z,48.89
2022-09-15T15:52:41.567Z,49.44
2022-09-15T15:55:16.384Z,48.49
2022-09-15T15:57:43.316Z,48.45
2022-09-15T16:00:26.626Z,48.59
2022-09-15T16:02:54.031Z,47.87
2022-09-15T16:05:22.172Z,48.07
2022-09-15T16:07:50.156Z,48.21
2022-09-15T16:10:19.197Z,48.02
2022-09-15T16:12:49.062Z,49.13
2022-09-15T16:15:20.447Z,47.68
2022-09-15T16:17:48.305Z,49.25
2022-09-15T16:20:16.320Z,48.46
2022-09-15T16:22:43.577Z,48.94
2022-09-15T16:25:13.457Z,48.63
2022-09-15T16:27:40.600Z,48.51
2022-09-15T16:30:08.408Z,49.32
2022-09-15T16:32:34.938Z,49.21
2022-09-15T16:35:01.590Z,48.91
2022-09-15T16:37:28.108Z,49.04
2022-09-15T16:39:54.710Z,50.00
2022-09-15T16:42:21.215Z,50.96
2022-09-15T16:44:47.714Z,50.65
2022-09-15T16:47:14.168Z,50.16
2022-09-15T16:49:40.720Z,49.83
2022-09-15T16:52:09.130Z,50.35
2022-09-15T16:54:35.632Z,50.63
2022-09-15T16:57:02.227Z,50.52
2022-09-15T16:59:28.823Z,50.94
2022-09-15T17:01:55.456Z,50.82
2022-09-15T17:04:22.849Z,51.48
2022-09-15T17:06:49.523Z,50.82
2022-09-15T17:09:15.979Z,52.26
2022-09-15T17:11:42.655Z,51.82
2022-09-15T17:14:13.910Z,51.82
2022-09-15T17:16:40.444Z,53.01
2022-09-15T17:19:07.152Z,53.72
2022-09-15T17:21:33.652Z,55.07
2022-09-15T17:24:00.484Z,56.73
2022-09-15T17:26:31.248Z,56.30
2022-09-15T17:28:58.444Z,57.31
2022-09-15T17:31:25.157Z,58.30
2022-09-15T17:33:52.303Z,57.91
2022-09-15T17:36:18.849Z,59.00
2022-09-15T17:38:45.998Z,58.45
2022-09-15T17:41:17.608Z,58.05
2022-09-15T17:43:44.320Z,58.54
2022-09-15T17:46:10.899Z,55.38
2022-09-15T17:48:38.869Z,55.62
2022-09-15T17:51:06.880Z,56.26
2022-09-15T17:53:33.610Z,55.46
2022-09-15T17:56:00.196Z,56.30
2022-09-15T17:58:26.970Z,56.96
2022-09-15T18:00:54.093Z,56.89
2022-09-15T18:03:31.109Z,56.86
2022-09-15T18:05:59.510Z,55.03
2022-09-15T18:08:27.117Z,55.09
2022-09-15T18:10:53.791Z,54.79
2022-09-15T18:13:23.418Z,55.36
2022-09-15T18:15:50.507Z,55.94
2022-09-15T18:18:20.269Z,56.43
2022-09-15T18:20:47.895Z,56.30
2022-09-15T18:23:17.052Z,56.67
2022-09-15T18:25:44.395Z,57.53
2022-09-15T18:28:11.148Z,57.13
2022-09-15T18:30:42.424Z,57.01
2022-09-15T18:33:20.266Z,56.69
2022-09-15T18:35:48.583Z,57.27
2022-09-15T18:38:15.309Z,56.73
2022-09-15T18:40:50.088Z,56.95
2022-09-15T18:43:17.111Z,56.08
2022-09-15T18:45:44.532Z,55.29
2022-09-15T18:48:13.150Z,54.67
2022-09-15T18:50:41.564Z,55.50
2022-09-15T18:53:08.376Z,56.04
2022-09-15T18:55:35.137Z,55.29
2022-09-15T18:58:02.646Z,55.58
2022-09-15T19:00:29.370Z,55.15
2022-09-15T19:03:00.579Z,54.91
2022-09-15T19:05:28.385Z,54.37
2022-09-15T19:07:55.363Z,53.75
2022-09-15T19:10:22.504Z,53.90
2022-09-15T19:12:49.004Z,55.19
2022-09-15T19:15:15.842Z,55.31
2022-09-15T19:17:42.892Z,55.54
2022-09-15T19:20:11.788Z,55.34
2022-09-15T19:22:38.410Z,54.57
2022-09-15T19:25:05.889Z,54.92
2022-09-15T19:27:35.822Z,55.16
2022-09-15T19:30:02.322Z,54.75
2022-09-15T19:32:28.844Z,55.02
2022-09-15T19:34:55.312Z,53.78
2022-09-15T19:37:22.418Z,54.49
2022-09-15T19:39:49.127Z,53.92
2022-09-15T19:44:47.930Z,53.62
2022-09-15T19:47:14.937Z,53.79
2022-09-15T19:49:41.501Z,54.28
2022-09-15T19:52:08.077Z,54.96
2022-09-15T19:54:34.987Z,54.12
2022-09-15T19:57:01.960Z,53.41
2022-09-15T19:59:31.262Z,54.58
2022-09-15T20:01:58.593Z,54.75
2022-09-15T20:04:25.165Z,54.08
2022-09-15T20:06:51.837Z,54.90
2022-09-15T20:09:18.469Z,53.24
2022-09-15T20:11:45.082Z,53.54
2022-09-15T20:14:12.000Z,52.46
2022-09-15T20:16:39.562Z,52.95
2022-09-15T20:19:06.177Z,53.08
2022-09-15T20:21:51.772Z,53.95
2022-09-15T20:24:19.682Z,55.23
2022-09-15T20:26:47.677Z,55.64
2022-09-15T20:29:14.480Z,55.30
2022-09-15T20:31:41.724Z,54.41
2022-09-15T20:34:08.439Z,54.30
2022-09-15T20:36:36.670Z,54.50
2022-09-15T20:39:05.768Z,53.61
2022-09-15T20:41:32.425Z,54.42
2022-09-15T20:43:59.133Z,53.33
2022-09-15T20:46:26.233Z,54.64
2022-09-15T20:48:53.216Z,55.99
2022-09-15T20:51:25.525Z,54.59
2022-09-15T20:53:54.123Z,54.77
2022-09-15T20:56:24.925Z,55.21
2022-09-15T20:58:56.710Z,55.54
2022-09-15T21:01:25.705Z,55.67
2022-09-15T21:03:52.323Z,54.75
2022-09-15T21:06:23.016Z,54.36
2022-09-15T21:08:50.169Z,54.77
2022-09-15T21:11:18.197Z,53.77
2022-09-15T21:13:45.675Z,54.10
2022-09-15T21:16:15.244Z,53.83
2022-09-15T21:18:43.347Z,53.59
2022-09-15T21:21:17.429Z,53.75
2022-09-15T21:23:55.291Z,54.82
2022-09-15T21:26:25.663Z,54.24
2022-09-15T21:28:53.638Z,53.33
2022-09-15T21:31:22.592Z,53.41
2022-09-15T21:33:49.685Z,53.92
2022-09-15T21:36:19.706Z,53.66
2022-09-15T21:38:46.265Z,54.62
2022-09-15T21:41:15.733Z,54.34
2022-09-15T21:43:44.483Z,54.46
2022-09-15T21:46:13.698Z,55.54
2022-09-15T21:48:40.812Z,57.49
2022-09-15T21:51:07.914Z,57.07
2022-09-15T21:53:37.737Z,55.61
2022-09-15T21:56:06.070Z,56.36
2022-09-15T21:58:38.959Z,55.79
2022-09-15T22:01:20.901Z,56.53
2022-09-15T22:03:53.513Z,54.91
2022-09-15T22:06:22.582Z,53.93
2022-09-15T22:08:49.208Z,54.45
2022-09-15T22:11:15.703Z,56.70
2022-09-15T22:13:43.602Z,55.92
2022-09-15T22:16:16.488Z,57.52
2022-09-15T22:18:43.435Z,58.48
2022-09-15T22:21:12.982Z,57.63
2022-09-15T22:23:39.902Z,56.15
2022-09-15T22:26:09.101Z,56.91
2022-09-15T22:28:35.663Z,57.61
2022-09-15T22:31:04.430Z,58.42
2022-09-15T22:33:31.002Z,58.21
2022-09-15T22:35:58.456Z,57.08
2022-09-15T22:38:27.870Z,59.50
2022-09-15T22:40:55.794Z,58.27
2022-09-15T22:43:23.298Z,57.17
2022-09-15T22:45:50.421Z,57.36
2022-09-15T22:48:17.332Z,58.45
2022-09-15T22:50:45.279Z,59.08
2022-09-15T22:53:12.874Z,59.41
2022-09-15T22:55:39.880Z,59.61
2022-09-15T22:58:06.486Z,60.62
2022-09-15T23:00:33.363Z,59.45
2022-09-15T23:03:00.281Z,60.37
2022-09-15T23:05:26.769Z,60.65
2022-09-15T23:07:53.242Z,60.75
2022-09-15T23:10:19.730Z,60.04
2022-09-15T23:12:46.231Z,60.17
2022-09-15T23:15:12.729Z,60.88
2022-09-15T23:17:39.448Z,60.60
2022-09-15T23:20:06.164Z,60.12
2022-09-15T23:22:32.697Z,60.30
2022-09-15T23:24:59.174Z,59.66
2022-09-15T23:27:25.652Z,59.16
2022-09-15T23:29:52.135Z,59.48
2022-09-15T23:32:18.661Z,59.70
2022-09-15T23:34:45.192Z,58.65
2022-09-15T23:37:11.661Z,60.51
2022-09-15T23:39:38.109Z,60.38
2022-09-15T23:42:04.634Z,60.59
2022-09-15T23:44:31.130Z,61.89
2022-09-15T23:46:57.708Z,61.99
2022-09-15T23:49:24.235Z,61.35
2022-09-15T23:51:50.724Z,61.84
2022-09-15T23:54:17.457Z,61.58
2022-09-15T23:56:44.028Z,61.44
2022-09-15T23:59:10.480Z,61.55
